Time;durP1;ratioP1;P1;durP2;ratioP2;P2;SDS_P1;SDS_P2;PMS_P1;PMS_P2;Temp;Humidity;BMP_temperature;BMP_pressure;BME280_temperature;BME280_humidity;BME280_pressure;Samples;Min_cycle;Max_cycle;Signal;HPM_P1;HPM_P2
2023/10/19 00:00:19;;;;;;;15.90;10.23;;;;;;;5.85;86.04;99994.16;5019961;28;20199;-70
2023/10/19 00:02:51;;;;;;;21.80;11.63;;;;;;;5.83;84.97;99991.09;5014849;28;20600;-71
2023/10/19 00:05:18;;;;;;;18.20;11.10;;;;;;;5.80;85.77;99991.69;5009756;28;20371;-71
2023/10/19 00:07:44;;;;;;;19.43;11.07;;;;;;;5.78;85.65;99974.72;5011334;28;20731;-70
2023/10/19 00:10:10;;;;;;;20.47;12.20;;;;;;;5.74;86.41;99966.72;5016148;28;20298;-70
2023/10/19 00:12:37;;;;;;;18.53;11.57;;;;;;;5.74;86.39;99969.34;5015988;28;20204;-71
2023/10/19 00:15:04;;;;;;;17.70;10.70;;;;;;;5.71;86.79;99958.69;5015090;28;20306;-71
2023/10/19 00:17:32;;;;;;;18.07;10.87;;;;;;;5.67;86.57;99953.31;5015870;28;20728;-71
2023/10/19 00:20:27;;;;;;;21.80;11.77;;;;;;;5.64;85.37;99951.28;5013624;28;20592;-71
2023/10/19 00:22:53;;;;;;;18.70;11.67;;;;;;;5.63;87.01;99947.13;4994498;28;20204;-71
2023/10/19 00:25:23;;;;;;;18.83;11.40;;;;;;;5.61;87.10;99941.44;5016343;28;20970;-70
2023/10/19 00:27:50;;;;;;;20.00;12.00;;;;;;;5.57;86.67;99940.53;5017273;28;20301;-71
2023/10/19 00:30:23;;;;;;;18.37;11.70;;;;;;;5.56;86.53;99936.38;5018461;28;20199;-71
2023/10/19 00:32:52;;;;;;;19.20;11.77;;;;;;;5.55;87.05;99936.66;5014834;28;20232;-71
2023/10/19 00:38:27;;;;;;;21.57;12.17;;;;;;;5.49;86.29;99925.56;5012631;28;20237;-71
2023/10/19 00:40:58;;;;;;;19.03;11.10;;;;;;;5.47;85.97;99919.88;5011812;28;20692;-71
2023/10/19 00:43:32;;;;;;;20.67;11.53;;;;;;;5.45;86.05;99926.50;5017202;28;20211;-71
2023/10/19 00:46:01;;;;;;;25.23;12.70;;;;;;;5.42;86.60;99925.25;5015931;28;20295;-71
2023/10/19 00:48:28;;;;;;;19.80;11.93;;;;;;;5.42;86.94;99914.00;4999427;28;20195;-71
2023/10/19 00:51:06;;;;;;;22.77;12.53;;;;;;;5.39;87.04;99919.88;5013694;28;20294;-71
2023/10/19 00:53:35;;;;;;;22.90;12.33;;;;;;;5.37;87.85;99914.94;4997610;28;20211;-71
2023/10/19 00:56:05;;;;;;;20.67;11.97;;;;;;;5.35;86.60;99909.25;4999146;28;20302;-71
2023/10/19 00:58:35;;;;;;;22.03;12.93;;;;;;;5.32;86.19;99899.38;5019353;28;20214;-70
2023/10/19 01:01:05;;;;;;;21.10;13.30;;;;;;;5.33;86.40;99897.53;5019345;28;20213;-71
2023/10/19 01:03:36;;;;;;;20.53;12.70;;;;;;;5.30;86.66;99891.06;5003346;28;20203;-71
2023/10/19 01:06:09;;;;;;;24.93;13.00;;;;;;;5.30;86.29;99883.22;5000161;28;20865;-70
2023/10/19 01:08:41;;;;;;;22.60;12.43;;;;;;;5.28;87.33;99882.75;5020317;28;20203;-71
2023/10/19 01:11:10;;;;;;;21.73;12.73;;;;;;;5.29;86.98;99891.38;4999763;28;20692;-70
2023/10/19 01:13:37;;;;;;;22.17;12.47;;;;;;;5.27;87.71;99875.19;5021933;28;20562;-71
2023/10/19 01:16:04;;;;;;;25.77;13.63;;;;;;;5.25;87.68;99867.66;5013288;28;20214;-71
2023/10/19 01:18:32;;;;;;;23.47;12.37;;;;;;;5.25;87.05;99866.88;5005016;28;20601;-71
2023/10/19 01:21:02;;;;;;;20.90;13.03;;;;;;;5.24;87.02;99854.88;5000864;28;20690;-71
2023/10/19 01:23:30;;;;;;;23.60;13.20;;;;;;;5.23;87.23;99853.34;5021906;28;20200;-71
2023/10/19 01:26:05;;;;;;;21.03;12.53;;;;;;;5.23;87.29;99840.25;5018895;28;20601;-71
2023/10/19 01:28:48;;;;;;;23.83;13.67;;;;;;;5.22;87.32;99843.94;5015250;28;20640;-71
2023/10/19 01:31:16;;;;;;;25.67;13.83;;;;;;;5.22;87.72;99841.31;5017734;28;20214;-71
2023/10/19 01:33:44;;;;;;;20.97;13.07;;;;;;;5.22;86.85;99829.00;5017852;28;20223;-71
2023/10/19 01:36:24;;;;;;;22.40;14.07;;;;;;;5.22;87.35;99831.63;5019573;28;20200;-71
2023/10/19 01:38:53;;;;;;;25.87;13.53;;;;;;;5.22;87.59;99826.38;4998669;28;20204;-71
2023/10/19 01:41:20;;;;;;;23.03;13.23;;;;;;;5.21;87.01;99827.47;5004014;28;20294;-70
2023/10/19 01:43:53;;;;;;;22.30;13.37;;;;;;;5.21;86.46;99818.84;5021329;28;20200;-71
2023/10/19 01:46:24;;;;;;;20.70;12.80;;;;;;;5.21;86.71;99829.31;5023063;28;20223;-71
2023/10/19 01:48:55;;;;;;;23.80;13.37;;;;;;;5.21;86.85;99826.69;5004370;28;20288;-71
2023/10/19 01:51:22;;;;;;;21.13;12.97;;;;;;;5.21;87.64;99830.09;5014181;28;21373;-71
2023/10/19 01:53:49;;;;;;;22.90;13.50;;;;;;;5.20;87.62;99823.31;4994794;28;20211;-70
2023/10/19 01:56:17;;;;;;;24.20;14.07;;;;;;;5.20;88.54;99814.69;4998766;28;20227;-70
2023/10/19 01:58:46;;;;;;;22.10;12.80;;;;;;;5.19;87.63;99821.00;5019215;28;20239;-71
2023/10/19 02:01:19;;;;;;;24.23;14.07;;;;;;;5.18;87.33;99807.13;5015238;28;20207;-71
2023/10/19 02:03:46;;;;;;;22.90;13.73;;;;;;;5.19;88.09;99810.53;5019003;28;20595;-71
2023/10/19 02:06:16;;;;;;;23.90;12.97;;;;;;;5.18;87.44;99791.44;4998127;28;20212;-71
2023/10/19 02:08:47;;;;;;;21.63;13.23;;;;;;;5.18;87.97;99788.06;5001075;28;20617;-71
2023/10/19 02:11:17;;;;;;;26.50;13.20;;;;;;;5.18;87.40;99786.19;5017526;28;20209;-70
2023/10/19 02:13:46;;;;;;;24.83;13.97;;;;;;;5.17;87.78;99789.91;4992790;28;20501;-71
2023/10/19 02:16:15;;;;;;;34.47;17.67;;;;;;;5.17;88.10;99789.91;4996957;28;21206;-71
2023/10/19 02:18:42;;;;;;;28.13;16.80;;;;;;;5.18;88.25;99786.19;5020015;28;20223;-71
2023/10/19 02:21:11;;;;;;;29.27;16.43;;;;;;;5.19;87.65;99776.53;5000961;28;20344;-71
2023/10/19 02:23:37;;;;;;;28.83;15.90;;;;;;;5.18;87.60;99770.50;5017347;28;20210;-71
2023/10/19 02:26:04;;;;;;;26.97;16.83;;;;;;;5.20;87.31;99780.66;5014442;28;20310;-71
2023/10/19 02:28:31;;;;;;;24.13;14.50;;;;;;;5.20;86.83;99776.22;5000601;28;20210;-71
2023/10/19 02:31:10;;;;;;;24.60;13.73;;;;;;;5.22;87.31;99774.03;5017280;28;20216;-71
2023/10/19 02:33:36;;;;;;;19.07;12.23;;;;;;;5.23;86.90;99780.06;5004607;28;20713;-70
2023/10/19 02:36:04;;;;;;;23.03;12.73;;;;;;;5.24;87.48;99773.75;5018505;28;20219;-71
2023/10/19 02:38:31;;;;;;;21.87;14.00;;;;;;;5.27;86.69;99770.50;5024592;23;20237;-70
2023/10/19 02:40:59;;;;;;;22.83;14.23;;;;;;;5.27;86.76;99766.03;5029649;28;20922;-69
2023/10/19 02:43:25;;;;;;;22.83;14.10;;;;;;;5.28;87.00;99759.72;5015219;28;20231;-70
2023/10/19 02:45:53;;;;;;;21.57;13.03;;;;;;;5.29;87.24;99745.53;5014440;28;20443;-69
2023/10/19 02:48:20;;;;;;;23.03;14.03;;;;;;;5.31;86.79;99742.63;5016136;28;20228;-70
2023/10/19 02:50:46;;;;;;;24.80;14.27;;;;;;;5.33;86.97;99740.47;5018168;28;20306;-69
2023/10/19 02:53:14;;;;;;;21.30;12.80;;;;;;;5.34;86.89;99731.53;5033818;28;20426;-70
2023/10/19 02:55:41;;;;;;;22.57;13.83;;;;;;;5.33;88.04;99725.53;5035436;28;20907;-70
2023/10/19 02:58:06;;;;;;;24.67;15.03;;;;;;;5.35;88.94;99718.16;5017085;28;20243;-69
2023/10/19 03:00:34;;;;;;;25.80;15.93;;;;;;;5.36;87.92;99717.06;5018785;28;20256;-70
2023/10/19 03:03:00;;;;;;;24.57;13.77;;;;;;;5.35;87.38;99707.69;5012321;28;20793;-70
2023/10/19 03:05:28;;;;;;;22.13;13.53;;;;;;;5.37;87.56;99708.13;5032587;28;20203;-70
2023/10/19 03:07:53;;;;;;;23.17;14.03;;;;;;;5.36;88.37;99690.88;5016352;28;20227;-70
2023/10/19 03:10:33;;;;;;;24.00;13.37;;;;;;;5.38;89.35;99690.59;5031271;28;20673;-69
2023/10/19 03:12:59;;;;;;;24.40;13.87;;;;;;;5.38;88.96;99682.72;5013572;28;20211;-70
2023/10/19 03:15:27;;;;;;;23.67;14.97;;;;;;;5.37;89.08;99675.94;5015514;28;20222;-69
2023/10/19 03:17:52;;;;;;;22.13;13.00;;;;;;;5.36;88.30;99666.56;5028574;28;20238;-70
2023/10/19 03:20:23;;;;;;;25.20;13.67;;;;;;;5.36;88.65;99662.09;5029649;28;20200;-70
2023/10/19 03:22:51;;;;;;;26.57;14.17;;;;;;;5.35;89.27;99660.56;5017409;28;20211;-70
2023/10/19 03:27:58;;;;;;;22.67;13.40;;;;;;;5.34;89.08;99653.78;5013801;28;20237;-70
2023/10/19 03:30:25;;;;;;;21.63;12.73;;;;;;;5.35;89.44;99652.72;5026890;28;20302;-69
2023/10/19 03:32:53;;;;;;;20.93;12.63;;;;;;;5.34;89.01;99653.03;5015662;28;20693;-70
2023/10/19 03:35:21;;;;;;;26.60;13.83;;;;;;;5.33;88.18;99649.63;5029742;28;20739;-70
2023/10/19 03:37:49;;;;;;;26.80;13.27;;;;;;;5.35;88.23;99638.84;5015141;28;20212;-70
2023/10/19 03:40:26;;;;;;;23.07;13.00;;;;;;;5.33;88.56;99633.16;5034821;28;20206;-69
2023/10/19 03:42:54;;;;;;;20.27;12.80;;;;;;;5.35;88.54;99625.75;5031077;28;20192;-70
2023/10/19 03:45:23;;;;;;;21.63;12.77;;;;;;;5.35;89.41;99626.53;5032005;28;20671;-70
2023/10/19 03:47:50;;;;;;;23.57;13.87;;;;;;;5.35;88.46;99637.00;5028927;28;20302;-70
2023/10/19 03:50:20;;;;;;;24.60;13.20;;;;;;;5.34;88.25;99634.69;5029328;28;20211;-70
2023/10/19 03:52:46;;;;;;;22.00;13.23;;;;;;;5.35;89.50;99633.63;5017303;28;20427;-70
2023/10/19 03:55:16;;;;;;;22.93;13.47;;;;;;;5.36;89.57;99635.16;5031456;28;20728;-69
2023/10/19 03:57:46;;;;;;;23.77;13.57;;;;;;;5.36;88.46;99625.44;5030826;28;20640;-69
2023/10/19 04:00:16;;;;;;;20.93;13.27;;;;;;;5.37;89.01;99613.91;5026685;28;20206;-70
2023/10/19 04:02:42;;;;;;;20.97;12.93;;;;;;;5.38;89.11;99625.91;5013373;28;20211;-69
2023/10/19 04:05:10;;;;;;;22.33;12.67;;;;;;;5.38;88.57;99620.66;5031531;28;21309;-69
2023/10/19 04:07:36;;;;;;;22.40;13.47;;;;;;;5.38;89.28;99607.56;5032417;28;20222;-69
2023/10/19 04:10:29;;;;;;;22.00;12.53;;;;;;;5.40;88.93;99596.78;5032013;28;20222;-69
2023/10/19 04:12:59;;;;;;;20.57;12.37;;;;;;;5.40;87.92;99592.34;5033402;28;20219;-69
2023/10/19 04:15:26;;;;;;;19.83;12.50;;;;;;;5.41;88.51;99591.25;5033825;28;20231;-70
2023/10/19 04:17:55;;;;;;;23.50;12.23;;;;;;;5.41;87.59;99586.00;5029082;28;20311;-70
2023/10/19 04:20:29;;;;;;;20.53;12.23;;;;;;;5.44;87.91;99574.16;5023147;28;20195;-70
2023/10/19 04:22:56;;;;;;;27.57;14.33;;;;;;;5.45;88.75;99565.19;5026007;28;20265;-70
2023/10/19 04:25:25;;;;;;;20.33;13.03;;;;;;;5.46;87.71;99562.28;5030482;28;20207;-70
2023/10/19 04:27:52;;;;;;;19.60;12.20;;;;;;;5.46;87.80;99566.72;5025464;28;20238;-69
2023/10/19 04:30:22;;;;;;;24.60;12.40;;;;;;;5.48;88.16;99570.56;5029222;28;20212;-70
2023/10/19 04:32:50;;;;;;;24.47;13.43;;;;;;;5.49;88.09;99571.34;5031454;28;20203;-69
2023/10/19 04:35:21;;;;;;;19.80;13.10;;;;;;;5.50;88.46;99578.88;5032838;28;20223;-70
2023/10/19 04:37:47;;;;;;;21.00;12.77;;;;;;;5.51;87.77;99582.25;5030768;28;20230;-70
2023/10/19 04:40:14;;;;;;;20.10;11.80;;;;;;;5.53;86.72;99583.47;5029627;28;20205;-69
2023/10/19 04:42:40;;;;;;;20.77;12.07;;;;;;;5.55;87.17;99583.16;5031234;28;20209;-70
2023/10/19 04:45:07;;;;;;;20.93;12.00;;;;;;;5.56;87.83;99579.47;5030404;28;20202;-69
2023/10/19 04:47:36;;;;;;;21.53;12.43;;;;;;;5.57;88.12;99578.38;5030116;28;20233;-70
2023/10/19 04:50:02;;;;;;;21.47;12.97;;;;;;;5.58;87.53;99570.22;5025878;28;21590;-71
2023/10/19 04:52:29;;;;;;;25.07;13.47;;;;;;;5.60;88.76;99572.53;5024710;28;20207;-69
2023/10/19 04:54:55;;;;;;;20.03;13.10;;;;;;;5.62;87.60;99581.59;5022619;28;20226;-70
2023/10/19 04:57:22;;;;;;;24.90;13.53;;;;;;;5.64;87.68;99576.78;5021275;28;20230;-70
2023/10/19 04:59:48;;;;;;;25.73;14.47;;;;;;;5.66;87.91;99568.63;5029559;28;20214;-69
2023/10/19 05:02:14;;;;;;;26.17;13.37;;;;;;;5.65;88.23;99578.31;5028838;28;20709;-69
2023/10/19 05:04:42;;;;;;;21.07;13.20;;;;;;;5.66;87.96;99573.88;5031112;28;20200;-70
2023/10/19 05:07:12;;;;;;;21.07;12.30;;;;;;;5.66;88.70;99577.25;5036082;28;20234;-70
2023/10/19 05:09:39;;;;;;;20.83;12.47;;;;;;;5.68;88.83;99569.84;5032727;28;20558;-70
2023/10/19 05:12:09;;;;;;;20.33;12.73;;;;;;;5.68;88.47;99567.22;5026925;28;20215;-70
2023/10/19 05:14:35;;;;;;;24.40;12.87;;;;;;;5.69;88.26;99566.13;5033776;28;20204;-70
2023/10/19 05:17:04;;;;;;;20.83;12.57;;;;;;;5.69;90.39;99570.63;5031275;28;20227;-70
2023/10/19 05:19:31;;;;;;;23.13;12.40;;;;;;;5.68;89.39;99571.69;5035674;28;20577;-70
2023/10/19 05:21:58;;;;;;;22.03;13.07;;;;;;;5.69;89.28;99573.25;5031136;28;20226;-70
2023/10/19 05:24:25;;;;;;;22.40;12.50;;;;;;;5.70;89.94;99574.78;5024729;28;20225;-69
2023/10/19 05:26:53;;;;;;;19.97;12.90;;;;;;;5.68;90.04;99572.47;5031422;28;20501;-70
2023/10/19 05:29:19;;;;;;;19.87;13.03;;;;;;;5.65;89.10;99575.72;5026012;28;20305;-69
2023/10/19 05:31:46;;;;;;;21.13;13.53;;;;;;;5.67;89.59;99567.53;5030675;28;20234;-69
2023/10/19 05:34:12;;;;;;;22.93;13.33;;;;;;;5.65;90.54;99559.25;5025791;28;20248;-70
2023/10/19 05:36:40;;;;;;;22.80;13.17;;;;;;;5.62;90.87;99562.50;5025205;28;20427;-70
2023/10/19 05:39:09;;;;;;;21.77;13.13;;;;;;;5.59;90.80;99552.66;5025517;28;20204;-70
2023/10/19 05:41:35;;;;;;;24.97;13.90;;;;;;;5.58;90.20;99559.75;5028629;28;20203;-70
2023/10/19 05:44:03;;;;;;;22.63;13.27;;;;;;;5.57;90.39;99558.22;5028518;28;20210;-70
2023/10/19 05:46:30;;;;;;;23.97;14.13;;;;;;;5.56;90.37;99569.00;5014071;28;20213;-70
2023/10/19 05:48:57;;;;;;;22.27;13.83;;;;;;;5.57;90.25;99567.91;5033355;28;20204;-69
2023/10/19 05:51:24;;;;;;;23.70;14.17;;;;;;;5.54;90.47;99561.44;5028928;28;20210;-71
2023/10/19 05:53:51;;;;;;;26.90;16.07;;;;;;;5.57;90.37;99560.03;5020450;28;20625;-70
2023/10/19 05:56:21;;;;;;;23.60;14.63;;;;;;;5.57;91.12;99557.44;5030835;28;20247;-69
2023/10/19 05:58:50;;;;;;;24.07;14.37;;;;;;;5.57;90.62;99562.66;5035492;28;20227;-70
2023/10/19 06:01:17;;;;;;;23.70;14.57;;;;;;;5.58;91.54;99558.97;5032181;28;20573;-70
2023/10/19 06:03:44;;;;;;;26.47;15.70;;;;;;;5.59;91.52;99558.66;5034040;28;20238;-69
2023/10/19 06:06:11;;;;;;;26.77;14.80;;;;;;;5.59;91.32;99550.78;5030569;28;20203;-69
2023/10/19 06:08:37;;;;;;;23.23;15.00;;;;;;;5.62;92.05;99550.16;5034130;28;20219;-70
2023/10/19 06:11:04;;;;;;;23.17;15.17;;;;;;;5.62;92.05;99552.78;5033900;28;20221;-69
2023/10/19 06:13:32;;;;;;;22.10;13.87;;;;;;;5.64;91.83;99545.38;5035897;28;20199;-71
2023/10/19 06:15:58;;;;;;;25.10;14.23;;;;;;;5.65;91.80;99548.78;5029131;28;20227;-70
2023/10/19 06:18:24;;;;;;;22.13;13.93;;;;;;;5.66;91.96;99547.69;5034925;28;20246;-69
2023/10/19 06:20:51;;;;;;;24.50;14.63;;;;;;;5.68;91.76;99548.13;5031353;28;20207;-71
2023/10/19 06:23:18;;;;;;;23.70;15.13;;;;;;;5.69;91.63;99537.34;5034961;28;20204;-70
2023/10/19 06:25:45;;;;;;;23.53;15.10;;;;;;;5.71;91.96;99542.25;5038222;28;20693;-69
2023/10/19 06:28:12;;;;;;;28.70;14.83;;;;;;;5.73;92.40;99540.06;5035516;28;20224;-71
2023/10/19 06:30:40;;;;;;;23.27;15.60;;;;;;;5.73;92.16;99538.25;5033752;28;20223;-70
2023/10/19 06:33:07;;;;;;;23.30;14.77;;;;;;;5.75;92.10;99541.28;5033185;28;20211;-71
2023/10/19 06:35:37;;;;;;;29.97;17.20;;;;;;;5.78;92.28;99550.38;5036610;28;20223;-70
2023/10/19 06:38:04;;;;;;;25.03;16.00;;;;;;;5.79;92.05;99542.19;5033634;28;20226;-71
2023/10/19 06:40:31;;;;;;;27.87;16.03;;;;;;;5.80;92.60;99533.28;5034783;28;20207;-71
2023/10/19 06:42:59;;;;;;;31.97;19.67;;;;;;;5.83;93.02;99532.66;5036334;28;20291;-71
2023/10/19 06:45:26;;;;;;;23.97;15.60;;;;;;;5.86;92.38;99539.84;5035895;28;20191;-71
2023/10/19 06:47:54;;;;;;;28.53;17.77;;;;;;;5.88;93.19;99539.53;5031417;28;20458;-71
2023/10/19 06:50:22;;;;;;;28.43;16.50;;;;;;;5.90;93.09;99545.25;5032607;28;20210;-70
2023/10/19 06:52:49;;;;;;;32.37;17.50;;;;;;;5.91;92.55;99539.66;5033925;28;20219;-70
2023/10/19 06:55:19;;;;;;;22.97;15.90;;;;;;;5.94;92.68;99540.88;5034484;28;20196;-70
2023/10/19 06:57:48;;;;;;;28.00;16.20;;;;;;;5.94;93.41;99536.44;5034352;28;20227;-71
2023/10/19 07:00:15;;;;;;;25.53;15.73;;;;;;;5.98;93.38;99545.19;5032604;28;20204;-71
2023/10/19 07:02:42;;;;;;;23.40;14.70;;;;;;;5.99;93.09;99538.06;5036239;28;20200;-71
2023/10/19 07:05:11;;;;;;;26.70;16.70;;;;;;;6.02;92.75;99538.19;5034921;28;20272;-70
2023/10/19 07:07:39;;;;;;;25.67;16.03;;;;;;;6.04;93.36;99538.66;5034988;28;20245;-71
2023/10/19 07:10:08;;;;;;;26.23;16.57;;;;;;;6.06;93.53;99535.72;5030160;28;20208;-70
2023/10/19 07:12:34;;;;;;;27.60;17.47;;;;;;;6.08;93.57;99534.31;5035182;28;20207;-71
2023/10/19 07:15:01;;;;;;;31.23;19.83;;;;;;;6.10;93.55;99534.75;5034715;28;20206;-71
2023/10/19 07:17:28;;;;;;;28.70;17.30;;;;;;;6.12;92.97;99526.59;5034796;28;20315;-71
2023/10/19 07:19:54;;;;;;;30.13;17.63;;;;;;;6.16;92.74;99527.47;5035797;28;20215;-71
2023/10/19 07:22:22;;;;;;;25.73;17.63;;;;;;;6.17;93.04;99519.28;5033420;28;20266;-70
2023/10/19 07:24:49;;;;;;;26.03;17.70;;;;;;;6.19;94.01;99519.72;5035073;28;20212;-71
2023/10/19 07:27:18;;;;;;;24.43;16.40;;;;;;;6.21;93.44;99522.03;5033019;28;20220;-71
2023/10/19 07:29:44;;;;;;;26.80;16.30;;;;;;;6.24;93.73;99510.91;5035715;28;20716;-71
2023/10/19 07:32:13;;;;;;;31.90;19.07;;;;;;;6.27;94.39;99494.53;5032742;28;20203;-70
2023/10/19 07:34:40;;;;;;;32.33;18.57;;;;;;;6.26;93.28;99491.13;5032185;28;20214;-71
2023/10/19 07:37:07;;;;;;;29.00;16.47;;;;;;;6.27;93.50;99486.66;5035934;28;20641;-71
2023/10/19 07:39:35;;;;;;;26.87;16.60;;;;;;;6.29;93.67;99487.88;5032325;28;20204;-71
2023/10/19 07:42:02;;;;;;;24.77;15.83;;;;;;;6.31;93.62;99488.31;5031014;28;20218;-70
2023/10/19 07:44:30;;;;;;;22.77;15.07;;;;;;;6.32;94.11;99484.59;5037190;28;20211;-71
2023/10/19 07:46:56;;;;;;;26.73;16.10;;;;;;;6.33;93.99;99486.13;5034525;28;20900;-70
2023/10/19 07:49:25;;;;;;;26.03;16.03;;;;;;;6.36;93.59;99479.47;5032640;28;20561;-71
2023/10/19 07:51:51;;;;;;;24.97;16.37;;;;;;;6.39;94.47;99463.09;5030905;28;20203;-71
2023/10/19 07:54:18;;;;;;;24.57;16.63;;;;;;;6.42;94.91;99454.59;5036056;28;20221;-71
2023/10/19 07:56:46;;;;;;;25.00;15.53;;;;;;;6.41;94.80;99443.34;5036868;28;20685;-71
2023/10/19 07:59:12;;;;;;;24.60;16.60;;;;;;;6.45;94.59;99440.81;5037780;28;20218;-71
2023/10/19 08:01:39;;;;;;;27.47;17.53;;;;;;;6.48;94.31;99448.81;5034873;28;20207;-71
2023/10/19 08:04:06;;;;;;;25.43;16.20;;;;;;;6.50;95.16;99465.00;5033948;28;20577;-72
2023/10/19 08:06:32;;;;;;;25.80;18.13;;;;;;;6.54;94.18;99480.84;5033195;28;20227;-71
2023/10/19 08:08:59;;;;;;;23.57;15.70;;;;;;;6.58;93.89;99486.97;5036529;28;20207;-71
2023/10/19 08:11:26;;;;;;;24.63;16.03;;;;;;;6.62;93.96;99488.63;5037687;28;20211;-71
2023/10/19 08:13:55;;;;;;;28.37;16.23;;;;;;;6.64;93.88;99473.31;5033548;28;20203;-71
2023/10/19 08:16:21;;;;;;;25.73;15.83;;;;;;;6.67;94.83;99480.53;5035401;28;20694;-72
2023/10/19 08:18:48;;;;;;;25.33;16.50;;;;;;;6.70;93.87;99481.75;5032049;28;20224;-72
2023/10/19 08:21:15;;;;;;;28.00;16.30;;;;;;;6.72;93.95;99479.53;5034809;28;20212;-72
2023/10/19 08:23:42;;;;;;;25.57;16.00;;;;;;;6.74;93.92;99475.50;5033045;28;20204;-71
2023/10/19 08:26:09;;;;;;;22.57;16.40;;;;;;;6.77;94.58;99477.50;5034268;28;20791;-71
2023/10/19 08:28:36;;;;;;;27.13;17.97;;;;;;;6.78;94.88;99479.00;5034035;28;20219;-71
2023/10/19 08:31:05;;;;;;;25.10;16.33;;;;;;;6.81;94.75;99477.59;5034140;28;20214;-71
2023/10/19 08:33:33;;;;;;;23.87;16.80;;;;;;;6.84;94.15;99487.44;5030206;28;20569;-71
2023/10/19 08:36:00;;;;;;;25.10;16.23;;;;;;;6.85;94.50;99494.22;5032267;28;20223;-71
2023/10/19 08:38:26;;;;;;;25.13;16.33;;;;;;;6.88;94.04;99496.97;5034509;28;20224;-71
2023/10/19 08:40:54;;;;;;;29.13;16.57;;;;;;;6.91;94.65;99498.94;5032783;28;20198;-71
2023/10/19 08:43:21;;;;;;;29.00;18.03;;;;;;;6.94;95.29;99494.91;5032099;28;20205;-71
2023/10/19 08:45:47;;;;;;;24.73;17.67;;;;;;;6.96;94.45;99495.31;5032360;28;20200;-71
2023/10/19 08:48:16;;;;;;;27.27;16.70;;;;;;;6.98;95.25;99491.28;5030116;28;20276;-71
2023/10/19 08:50:43;;;;;;;26.27;18.40;;;;;;;7.01;94.75;99482.00;5033478;28;20208;-72
2023/10/19 08:53:13;;;;;;;28.60;18.93;;;;;;;7.04;95.13;99473.47;5035675;28;20211;-70
2023/10/19 08:55:40;;;;;;;26.83;17.37;;;;;;;7.06;94.83;99472.06;5033067;28;20623;-71
2023/10/19 08:58:06;;;;;;;30.77;18.37;;;;;;;7.10;95.62;99467.66;5033255;28;20219;-71
2023/10/19 09:00:46;;;;;;;27.60;17.43;;;;;;;7.12;95.37;99454.22;5029465;28;20210;-72
2023/10/19 09:03:13;;;;;;;26.57;18.03;;;;;;;7.14;95.38;99442.28;5029528;28;20215;-71
2023/10/19 09:05:42;;;;;;;28.23;17.90;;;;;;;7.18;95.17;99431.88;5032706;28;20207;-70
2023/10/19 09:08:09;;;;;;;27.23;17.03;;;;;;;7.21;95.63;99431.22;5034078;28;20221;-71
2023/10/19 09:10:36;;;;;;;26.03;17.17;;;;;;;7.24;95.58;99426.09;5035265;28;20203;-71
2023/10/19 09:13:04;;;;;;;29.30;18.03;;;;;;;7.27;95.75;99419.41;5032619;28;20215;-71
2023/10/19 09:15:32;;;;;;;28.33;18.23;;;;;;;7.30;96.31;99421.38;5035811;28;20204;-71
2023/10/19 09:17:59;;;;;;;32.40;19.80;;;;;;;7.34;95.99;99417.75;5041154;28;20227;-70
2023/10/19 09:20:28;;;;;;;28.80;18.70;;;;;;;7.36;95.57;99407.66;5038425;28;20204;-71
2023/10/19 09:22:57;;;;;;;32.83;18.70;;;;;;;7.42;95.88;99410.84;5035431;28;20206;-71
2023/10/19 09:25:24;;;;;;;29.67;18.93;;;;;;;7.45;95.63;99404.94;5019682;28;20231;-71
2023/10/19 09:27:51;;;;;;;30.30;18.17;;;;;;;7.49;95.82;99411.03;5008922;28;20933;-72
2023/10/19 09:30:20;;;;;;;30.53;19.73;;;;;;;7.54;95.96;99418.69;5017629;28;20231;-71
2023/10/19 09:32:47;;;;;;;29.73;18.93;;;;;;;7.56;95.93;99424.38;5011886;28;20288;-71
2023/10/19 09:35:15;;;;;;;30.73;19.23;;;;;;;7.59;95.86;99415.81;5010736;28;20237;-72
2023/10/19 09:37:42;;;;;;;28.00;19.13;;;;;;;7.61;96.39;99411.00;5007951;28;21252;-72
2023/10/19 09:40:12;;;;;;;29.53;18.97;;;;;;;7.65;96.15;99419.75;5007974;28;20203;-72
2023/10/19 09:42:45;;;;;;;25.67;18.43;;;;;;;7.69;95.60;99408.25;5005685;28;20274;-71
2023/10/19 09:45:12;;;;;;;26.83;17.87;;;;;;;7.73;95.85;99405.72;5012593;28;20306;-71
2023/10/19 09:47:42;;;;;;;27.70;18.90;;;;;;;7.76;96.29;99403.19;5006928;28;20282;-72
2023/10/19 09:50:10;;;;;;;29.23;19.17;;;;;;;7.80;96.08;99414.56;5010911;28;20723;-71
2023/10/19 09:52:38;;;;;;;26.70;18.27;;;;;;;7.82;96.48;99401.84;5007251;28;20651;-71
2023/10/19 09:55:13;;;;;;;26.57;17.63;;;;;;;7.85;96.13;99409.06;5004336;28;20722;-71
2023/10/19 09:57:49;;;;;;;30.00;18.60;;;;;;;7.86;95.97;99418.47;5008840;28;20234;-71
2023/10/19 10:00:23;;;;;;;25.63;18.63;;;;;;;7.89;95.54;99406.50;5006700;28;20310;-72
2023/10/19 10:02:49;;;;;;;27.00;17.33;;;;;;;7.90;95.75;99392.28;5010975;28;20213;-71
2023/10/19 10:05:47;;;;;;;28.37;18.67;;;;;;;7.91;96.46;99378.03;5012719;28;20209;-71
2023/10/19 10:08:30;;;;;;;25.90;16.70;;;;;;;7.90;95.91;99364.13;5011494;28;20663;-71
2023/10/19 10:10:57;;;;;;;26.43;17.93;;;;;;;7.91;95.54;99360.41;5014873;28;20211;-71
2023/10/19 10:13:41;;;;;;;25.57;17.03;;;;;;;7.93;96.59;99373.97;5012310;28;20221;-72
2023/10/19 10:16:08;;;;;;;24.57;16.33;;;;;;;7.94;95.72;99374.75;5009911;28;20209;-72
2023/10/19 10:18:36;;;;;;;23.30;16.57;;;;;;;7.97;96.12;99368.81;5007113;28;20232;-71
2023/10/19 10:21:08;;;;;;;24.47;16.93;;;;;;;7.98;96.37;99365.84;5008044;28;20549;-71
2023/10/19 10:23:42;;;;;;;26.37;16.77;;;;;;;8.01;95.77;99362.53;5015555;28;20202;-72
2023/10/19 10:26:09;;;;;;;26.50;17.70;;;;;;;8.03;95.19;99364.84;5012243;28;20567;-71
2023/10/19 10:28:35;;;;;;;23.40;15.40;;;;;;;8.05;95.45;99358.13;5010385;28;20226;-70
2023/10/19 10:31:10;;;;;;;21.07;15.03;;;;;;;8.06;95.17;99349.16;5012958;28;20213;-71
2023/10/19 10:33:46;;;;;;;23.90;16.30;;;;;;;8.10;95.52;99339.50;5011787;28;20467;-72
2023/10/19 10:36:13;;;;;;;23.67;15.60;;;;;;;8.13;95.35;99335.44;5012044;28;20224;-71
2023/10/19 10:38:40;;;;;;;24.20;15.90;;;;;;;8.16;95.35;99332.88;5010554;28;20231;-72
2023/10/19 10:41:09;;;;;;;23.10;16.20;;;;;;;8.19;95.17;99315.66;5008577;28;20212;-71
2023/10/19 10:43:49;;;;;;;24.93;16.80;;;;;;;8.22;94.65;99325.50;5009597;28;20569;-71
2023/10/19 10:46:17;;;;;;;22.30;16.07;;;;;;;8.24;95.28;99331.22;5009831;28;20258;-71
2023/10/19 10:48:43;;;;;;;20.63;15.33;;;;;;;8.25;94.75;99327.47;5010285;28;20241;-71
2023/10/19 10:51:19;;;;;;;22.93;15.77;;;;;;;8.26;94.43;99323.75;5013270;28;20213;-71
2023/10/19 10:53:47;;;;;;;22.57;14.93;;;;;;;8.28;95.40;99339.97;5010061;28;20210;-71
2023/10/19 10:56:14;;;;;;;24.27;15.17;;;;;;;8.27;94.15;99327.88;5010897;28;20745;-71
2023/10/19 10:58:40;;;;;;;21.10;15.37;;;;;;;8.29;94.30;99325.69;5009036;28;20221;-71
2023/10/19 11:01:07;;;;;;;20.00;14.13;;;;;;;8.29;93.83;99323.06;5010390;28;20204;-72
2023/10/19 11:03:34;;;;;;;25.10;16.80;;;;;;;8.29;94.22;99330.97;5010045;28;20210;-71
2023/10/19 11:06:07;;;;;;;19.47;14.20;;;;;;;8.31;94.16;99326.88;5008716;28;20218;-72
2023/10/19 11:08:35;;;;;;;18.67;14.57;;;;;;;8.30;94.07;99330.63;5010099;28;20759;-71
2023/10/19 11:11:10;;;;;;;21.57;15.47;;;;;;;8.35;93.58;99332.22;5011883;28;20576;-72
2023/10/19 11:13:38;;;;;;;22.67;15.33;;;;;;;8.39;93.86;99325.19;5010421;28;20206;-72
2023/10/19 11:16:06;;;;;;;23.97;15.80;;;;;;;8.41;93.74;99317.72;5011068;28;20389;-71
2023/10/19 11:18:40;;;;;;;23.13;15.30;;;;;;;8.43;94.02;99315.50;5009992;28;20253;-71
2023/10/19 11:21:09;;;;;;;19.93;14.27;;;;;;;8.45;93.56;99316.66;5008363;28;20613;-71
2023/10/19 11:23:37;;;;;;;20.53;14.87;;;;;;;8.48;94.19;99317.84;5008963;28;20207;-71
2023/10/19 11:26:05;;;;;;;23.07;15.70;;;;;;;8.48;93.61;99316.00;5009952;28;20242;-71
2023/10/19 11:28:32;;;;;;;20.57;13.90;;;;;;;8.49;93.62;99308.88;5007606;28;20633;-72
2023/10/19 11:31:11;;;;;;;21.43;14.97;;;;;;;8.50;94.16;99305.16;5004183;28;20230;-71
2023/10/19 11:33:39;;;;;;;23.57;14.73;;;;;;;8.51;93.46;99309.28;5012279;28;20703;-71
2023/10/19 11:36:06;;;;;;;20.77;14.17;;;;;;;8.55;93.59;99303.00;5009782;28;20565;-72